Time;durP1;ratioP1;P1;durP2;ratioP2;P2;SDS_P1;SDS_P2;PMS_P1;PMS_P2;Temp;Humidity;BMP_temperature;BMP_pressure;BME280_temperature;BME280_humidity;BME280_pressure;Samples;Min_cycle;Max_cycle;Signal;HPM_P1;HPM_P2
2021/08/28 00:01:01;;;;;;;18.23;11.95;;;13.50;99.40;;;;;;5028198;28;20369;-73
2021/08/28 00:03:27;;;;;;;19.30;13.15;;;13.50;99.40;;;;;;5025178;28;20036;-73
2021/08/28 00:05:53;;;;;;;18.15;12.40;;;13.40;99.30;;;;;;5029479;28;20464;-74
2021/08/28 00:08:19;;;;;;;18.92;12.90;;;13.50;99.40;;;;;;5031625;28;20238;-73
2021/08/28 00:10:45;;;;;;;18.90;13.07;;;13.50;99.40;;;;;;5033514;28;20196;-73
2021/08/28 00:13:12;;;;;;;24.45;13.27;;;13.40;99.40;;;;;;5036767;28;20171;-73
2021/08/28 00:15:37;;;;;;;20.13;13.77;;;13.40;99.40;;;;;;5035774;28;20489;-74
2021/08/28 00:18:04;;;;;;;19.42;13.02;;;13.40;99.40;;;;;;5034425;28;20040;-73
2021/08/28 00:20:29;;;;;;;22.67;13.82;;;13.40;99.40;;;;;;5036483;28;20154;-73
2021/08/28 00:22:55;;;;;;;26.20;13.77;;;13.40;99.40;;;;;;5029435;28;20048;-73
2021/08/28 00:25:21;;;;;;;23.23;14.85;;;13.40;99.40;;;;;;5037130;28;20029;-74
2021/08/28 00:27:46;;;;;;;25.27;14.57;;;13.40;99.30;;;;;;5032812;28;20391;-73
2021/08/28 00:30:13;;;;;;;23.77;14.52;;;13.30;99.40;;;;;;5032581;28;20021;-73
2021/08/28 00:32:39;;;;;;;27.92;15.65;;;13.40;99.50;;;;;;5029070;28;20128;-73
2021/08/28 00:35:06;;;;;;;26.98;15.48;;;13.40;99.50;;;;;;5037618;28;20155;-73
2021/08/28 00:37:32;;;;;;;29.15;15.98;;;13.40;99.50;;;;;;5027521;28;20098;-74
2021/08/28 00:39:59;;;;;;;24.13;15.65;;;13.40;99.50;;;;;;5033982;28;20124;-73
2021/08/28 00:42:25;;;;;;;25.95;15.77;;;13.40;99.50;;;;;;5030958;28;20079;-73
2021/08/28 00:44:51;;;;;;;27.73;16.38;;;13.40;99.50;;;;;;5039311;28;20021;-74
2021/08/28 00:47:21;;;;;;;29.77;16.05;;;13.40;99.40;;;;;;5032996;28;20403;-73
2021/08/28 00:49:50;;;;;;;25.98;15.63;;;13.40;99.50;;;;;;5033434;28;20097;-72
2021/08/28 00:52:17;;;;;;;33.17;16.73;;;13.40;99.50;;;;;;5031218;28;20119;-74
2021/08/28 00:54:43;;;;;;;31.02;16.48;;;13.40;99.50;;;;;;5032999;28;20648;-74
2021/08/28 00:57:12;;;;;;;35.72;17.52;;;13.40;99.50;;;;;;5032355;28;20089;-73
2021/08/28 00:59:40;;;;;;;26.58;16.08;;;13.40;99.50;;;;;;5039380;28;20163;-73
2021/08/28 01:02:07;;;;;;;33.05;17.48;;;13.40;99.60;;;;;;5027424;28;20187;-74
2021/08/28 01:05:02;;;;;;;27.00;16.02;;;13.50;99.60;;;;;;5031923;28;20162;-73
2021/08/28 01:07:36;;;;;;;39.20;17.38;;;13.50;99.60;;;;;;5029148;28;20032;-73
2021/08/28 01:10:02;;;;;;;26.38;15.65;;;13.50;99.60;;;;;;5032777;28;20099;-73
2021/08/28 01:12:39;;;;;;;28.67;15.25;;;13.50;99.60;;;;;;5032782;28;20033;-73
2021/08/28 01:15:09;;;;;;;27.83;15.38;;;13.50;99.60;;;;;;5042268;28;20108;-74
2021/08/28 01:17:38;;;;;;;26.13;16.40;;;13.50;99.60;;;;;;5026498;28;20123;-74
2021/08/28 01:20:18;;;;;;;33.90;15.45;;;13.50;99.60;;;;;;5034633;28;20045;-74
2021/08/28 01:22:45;;;;;;;35.17;16.77;;;13.50;99.60;;;;;;5030188;28;20021;-73
2021/08/28 01:25:12;;;;;;;34.40;15.60;;;13.50;99.60;;;;;;5030625;28;20337;-73
2021/08/28 01:27:49;;;;;;;26.85;15.35;;;13.50;99.60;;;;;;5027714;28;20484;-73
2021/08/28 01:30:16;;;;;;;31.13;15.50;;;13.50;99.60;;;;;;5026630;28;20033;-73
2021/08/28 01:32:44;;;;;;;32.00;16.20;;;13.50;99.60;;;;;;5032867;28;20021;-73
2021/08/28 01:35:10;;;;;;;30.88;15.65;;;13.50;99.60;;;;;;5034999;28;20025;-74
2021/08/28 01:37:40;;;;;;;31.10;15.98;;;13.50;99.60;;;;;;5028942;28;20025;-73
2021/08/28 01:40:07;;;;;;;34.33;16.40;;;13.50;99.60;;;;;;5039442;28;20021;-73
2021/08/28 01:42:34;;;;;;;26.38;15.40;;;13.50;99.70;;;;;;5039907;28;20056;-73
2021/08/28 01:45:01;;;;;;;26.33;15.23;;;13.50;99.70;;;;;;5032798;28;20018;-73
2021/08/28 01:47:28;;;;;;;29.08;14.80;;;13.50;99.70;;;;;;5038391;28;20053;-74
2021/08/28 01:49:55;;;;;;;30.05;15.57;;;13.50;99.70;;;;;;5038655;28;20072;-74
2021/08/28 01:52:21;;;;;;;30.83;15.52;;;13.50;99.60;;;;;;5028647;28;20049;-73
2021/08/28 01:54:49;;;;;;;34.88;15.35;;;13.50;99.70;;;;;;5041017;28;20048;-73
2021/08/28 01:57:15;;;;;;;27.38;14.30;;;13.50;99.70;;;;;;5029640;28;20087;-73
2021/08/28 01:59:41;;;;;;;23.27;13.40;;;13.50;99.70;;;;;;5024376;28;20041;-73
2021/08/28 02:02:07;;;;;;;22.25;12.10;;;13.60;99.70;;;;;;5044907;28;20051;-72
2021/08/28 02:04:37;;;;;;;22.90;11.52;;;13.60;99.70;;;;;;5034255;28;20035;-73
2021/08/28 02:07:19;;;;;;;27.00;11.43;;;13.60;99.70;;;;;;5030145;28;20121;-73
2021/08/28 02:09:52;;;;;;;19.48;10.68;;;13.60;99.70;;;;;;5035921;28;20107;-73
2021/08/28 02:12:32;;;;;;;27.75;11.98;;;13.60;99.80;;;;;;5032063;28;20091;-73
2021/08/28 02:15:04;;;;;;;23.77;11.05;;;13.60;99.80;;;;;;5033420;28;20205;-73
2021/08/28 02:17:31;;;;;;;20.05;10.68;;;13.60;99.80;;;;;;5028085;28;20410;-73
2021/08/28 02:20:02;;;;;;;22.20;11.07;;;13.60;99.80;;;;;;5028493;28;20374;-73
2021/08/28 02:22:30;;;;;;;17.25;10.40;;;13.60;99.80;;;;;;5037265;28;20021;-73
2021/08/28 02:25:02;;;;;;;27.52;11.48;;;13.60;99.80;;;;;;5038410;28;20041;-73
2021/08/28 02:27:32;;;;;;;25.95;11.18;;;13.60;99.80;;;;;;5031935;28;20064;-73
2021/08/28 02:30:05;;;;;;;17.42;10.02;;;13.60;99.80;;;;;;5030912;28;20025;-73
2021/08/28 02:32:32;;;;;;;20.48;9.95;;;13.60;99.80;;;;;;5036304;28;20048;-73
2021/08/28 02:35:00;;;;;;;23.98;10.27;;;13.60;99.80;;;;;;5027168;28;20520;-73
2021/08/28 02:37:27;;;;;;;19.58;9.80;;;13.60;99.80;;;;;;5032450;28;20345;-73
2021/08/28 02:39:54;;;;;;;21.70;10.25;;;13.60;99.90;;;;;;5031618;28;20043;-73
2021/08/28 02:42:20;;;;;;;22.38;10.63;;;13.60;99.80;;;;;;5028450;28;20555;-73
2021/08/28 02:44:48;;;;;;;20.77;10.30;;;13.60;99.80;;;;;;5029021;28;20128;-73
2021/08/28 02:47:15;;;;;;;19.48;10.95;;;13.60;99.80;;;;;;5040828;28;20033;-73
2021/08/28 02:49:42;;;;;;;20.38;10.38;;;13.60;99.80;;;;;;5033439;28;20029;-73
2021/08/28 02:52:13;;;;;;;18.85;10.60;;;13.60;99.80;;;;;;5036730;28;20159;-72
2021/08/28 02:54:41;;;;;;;22.67;10.88;;;13.60;99.90;;;;;;5039221;28;20086;-73
2021/08/28 02:57:07;;;;;;;22.48;10.82;;;13.60;99.80;;;;;;5036417;28;20972;-72
2021/08/28 02:59:35;;;;;;;22.40;11.57;;;13.60;99.90;;;;;;5036921;28;20041;-73
2021/08/28 03:02:02;;;;;;;24.35;11.48;;;13.60;99.90;;;;;;5041735;28;20067;-73
2021/08/28 03:04:29;;;;;;;24.60;12.10;;;13.60;99.90;;;;;;5029953;28;20034;-73
2021/08/28 03:06:55;;;;;;;29.38;12.80;;;13.60;99.90;;;;;;5031619;28;20021;-73
2021/08/28 03:09:21;;;;;;;23.98;12.13;;;13.60;99.80;;;;;;5038577;28;20071;-73
2021/08/28 03:11:47;;;;;;;26.58;12.57;;;13.60;99.80;;;;;;5036705;28;20040;-73
2021/08/28 03:14:13;;;;;;;33.80;12.93;;;13.60;99.80;;;;;;5035797;28;20021;-73
2021/08/28 03:16:45;;;;;;;41.00;13.90;;;13.60;99.90;;;;;;5025163;28;20429;-72
2021/08/28 03:19:12;;;;;;;31.38;13.88;;;13.60;99.90;;;;;;5039628;28;20027;-72
2021/08/28 03:21:40;;;;;;;31.90;13.85;;;13.60;99.80;;;;;;5033654;28;20051;-73
2021/08/28 03:24:07;;;;;;;37.17;12.65;;;13.60;99.80;;;;;;5041043;28;20037;-72
2021/08/28 03:26:33;;;;;;;32.22;14.43;;;13.60;99.90;;;;;;5030800;28;20487;-73
2021/08/28 03:29:00;;;;;;;27.15;12.80;;;13.60;99.80;;;;;;5051187;28;20335;-72
2021/08/28 03:31:26;;;;;;;34.47;13.25;;;13.50;99.80;;;;;;5027929;28;20032;-72
2021/08/28 03:33:56;;;;;;;28.63;12.30;;;13.50;99.80;;;;;;5028800;28;20242;-73
2021/08/28 03:36:23;;;;;;;28.70;11.35;;;13.50;99.80;;;;;;5038409;28;20106;-72
2021/08/28 03:38:49;;;;;;;23.90;11.60;;;13.50;99.80;;;;;;5035821;28;20025;-73
2021/08/28 03:41:15;;;;;;;20.02;11.55;;;13.40;99.80;;;;;;5035253;28;20811;-73
2021/08/28 03:43:45;;;;;;;25.08;11.48;;;13.40;99.80;;;;;;5033657;28;20025;-72
2021/08/28 03:46:12;;;;;;;26.50;11.48;;;13.30;99.80;;;;;;5029943;28;20028;-72
2021/08/28 03:48:39;;;;;;;33.95;11.68;;;13.20;99.80;;;;;;5036495;28;20033;-72
2021/08/28 03:51:05;;;;;;;33.83;11.88;;;13.20;99.80;;;;;;5033955;28;20120;-72
2021/08/28 03:53:31;;;;;;;39.60;11.45;;;13.10;99.80;;;;;;5035412;28;20476;-72
2021/08/28 03:55:56;;;;;;;31.98;11.88;;;13.10;99.90;;;;;;5037617;28;20149;-73
2021/08/28 03:58:23;;;;;;;36.83;12.50;;;13.10;99.90;;;;;;5046527;28;20025;-72
2021/08/28 04:00:50;;;;;;;43.92;12.88;;;13.10;99.90;;;;;;5034170;28;20404;-72
2021/08/28 04:03:15;;;;;;;33.28;13.00;;;13.10;99.80;;;;;;5029820;28;20021;-72
2021/08/28 04:05:41;;;;;;;40.78;12.40;;;13.00;99.90;;;;;;5038060;28;20086;-72
2021/08/28 04:08:07;;;;;;;34.20;11.88;;;13.00;99.80;;;;;;5031112;28;20131;-72
2021/08/28 04:10:32;;;;;;;36.33;11.68;;;12.90;99.80;;;;;;5037298;28;20162;-72
2021/08/28 04:12:58;;;;;;;42.17;11.73;;;12.90;99.90;;;;;;5031956;28;20469;-72
2021/08/28 04:15:23;;;;;;;34.00;12.23;;;12.90;99.90;;;;;;5035609;28;20025;-72
2021/08/28 04:17:49;;;;;;;31.75;12.77;;;13.00;99.90;;;;;;5027263;28;20025;-73
2021/08/28 04:20:15;;;;;;;43.65;13.15;;;13.00;99.90;;;;;;5034487;28;20025;-64
2021/08/28 04:22:41;;;;;;;45.92;13.75;;;13.00;99.90;;;;;;5033512;28;20125;-65
2021/08/28 04:25:07;;;;;;;34.03;12.85;;;13.00;99.90;;;;;;5036239;28;20463;-65
2021/08/28 04:27:33;;;;;;;35.85;13.23;;;13.10;99.90;;;;;;5026349;28;20029;-63
2021/08/28 04:29:58;;;;;;;34.28;13.23;;;13.10;99.90;;;;;;5028870;28;20218;-65
2021/08/28 04:32:24;;;;;;;61.83;14.65;;;13.10;99.90;;;;;;5037736;28;20056;-65
2021/08/28 04:34:50;;;;;;;51.53;15.43;;;13.20;99.90;;;;;;5031518;28;20137;-65
2021/08/28 04:37:15;;;;;;;64.82;16.17;;;13.20;99.90;;;;;;5035645;28;20398;-65
2021/08/28 04:39:41;;;;;;;45.35;14.77;;;13.30;99.90;;;;;;5036442;28;20039;-65
2021/08/28 04:42:06;;;;;;;43.58;14.93;;;13.30;99.90;;;;;;5036359;28;20033;-63
2021/08/28 04:44:32;;;;;;;45.05;14.00;;;13.30;99.90;;;;;;5030484;28;20502;-64
2021/08/28 04:46:58;;;;;;;33.45;13.65;;;13.30;99.90;;;;;;5038592;28;20025;-65
2021/08/28 04:49:23;;;;;;;42.83;13.80;;;13.30;99.90;;;;;;5036401;28;20130;-65
2021/08/28 04:51:49;;;;;;;35.92;13.48;;;13.30;99.90;;;;;;5033579;28;20033;-64
2021/08/28 04:54:15;;;;;;;44.28;13.60;;;13.30;99.90;;;;;;5036972;28;20185;-64
2021/08/28 04:56:40;;;;;;;53.30;14.25;;;13.40;99.90;;;;;;5033819;28;20214;-65
2021/08/28 04:59:06;;;;;;;37.00;12.93;;;13.40;99.90;;;;;;5030405;28;21256;-65
2021/08/28 05:01:31;;;;;;;54.63;13.63;;;13.40;99.90;;;;;;5038991;28;20028;-64
2021/08/28 05:03:57;;;;;;;42.90;13.77;;;13.40;99.90;;;;;;5023636;28;20052;-65
2021/08/28 05:06:23;;;;;;;53.72;13.93;;;13.50;99.90;;;;;;5042281;28;20072;-65
2021/08/28 05:08:48;;;;;;;47.80;13.77;;;13.40;99.90;;;;;;5033912;28;20032;-63
2021/08/28 05:11:14;;;;;;;47.78;13.77;;;13.50;99.90;;;;;;5038023;28;20142;-65
2021/08/28 05:13:39;;;;;;;51.30;14.13;;;13.50;99.90;;;;;;5030806;28;20029;-65
2021/08/28 05:16:06;;;;;;;51.58;13.88;;;13.50;99.90;;;;;;5039757;28;20488;-65
2021/08/28 05:18:31;;;;;;;54.97;15.18;;;13.40;99.90;;;;;;5022565;28;20022;-64
2021/08/28 05:20:57;;;;;;;42.75;13.95;;;13.50;99.90;;;;;;5037520;28;20341;-63
2021/08/28 05:23:23;;;;;;;58.00;14.93;;;13.50;99.90;;;;;;5025672;28;20029;-64
2021/08/28 05:25:48;;;;;;;49.15;14.82;;;13.50;99.90;;;;;;5023691;28;20416;-64
2021/08/28 05:28:14;;;;;;;49.00;17.10;;;13.50;99.90;;;;;;5025776;28;20029;-64
2021/08/28 05:30:40;;;;;;;62.85;18.33;;;13.50;99.90;;;;;;5037740;28;20045;-64
2021/08/28 05:33:05;;;;;;;52.00;17.42;;;13.60;99.90;;;;;;5035343;28;20336;-65
2021/08/28 05:35:31;;;;;;;54.22;17.00;;;13.60;99.90;;;;;;5034481;28;20059;-65
2021/08/28 05:37:56;;;;;;;55.25;16.85;;;13.60;99.90;;;;;;5032263;28;20043;-65
2021/08/28 05:40:22;;;;;;;42.75;16.38;;;13.60;99.90;;;;;;5032949;28;20077;-65
2021/08/28 05:42:48;;;;;;;57.78;17.17;;;13.70;99.90;;;;;;5052703;28;20047;-65
2021/08/28 05:45:14;;;;;;;35.45;15.50;;;13.60;99.90;;;;;;5031365;28;20112;-65
2021/08/28 05:47:39;;;;;;;50.70;16.35;;;13.60;99.90;;;;;;5033043;28;20084;-65
2021/08/28 05:50:06;;;;;;;44.55;14.52;;;13.70;99.90;;;;;;5024757;28;20236;-65
2021/08/28 05:52:31;;;;;;;26.00;11.95;;;13.70;99.90;;;;;;5033190;28;20052;-65
2021/08/28 05:54:57;;;;;;;24.58;10.90;;;13.70;99.90;;;;;;5029684;28;20029;-65
2021/08/28 05:57:23;;;;;;;24.27;10.65;;;13.70;99.90;;;;;;5032488;28;20554;-65
2021/08/28 05:59:48;;;;;;;22.38;10.32;;;13.80;99.90;;;;;;5027433;28;20029;-65
2021/08/28 06:02:14;;;;;;;25.17;9.45;;;13.80;99.90;;;;;;5030129;28;20052;-65
2021/08/28 06:04:40;;;;;;;19.92;8.95;;;14.00;99.90;;;;;;5022298;28;20500;-65
2021/08/28 06:07:06;;;;;;;20.02;9.88;;;14.10;99.90;;;;;;5030969;28;20475;-65
2021/08/28 06:09:31;;;;;;;11.30;7.35;;;14.10;99.90;;;;;;5034401;28;20411;-65
2021/08/28 06:11:57;;;;;;;12.85;6.90;;;14.10;99.90;;;;;;5032149;28;20096;-64
2021/08/28 06:14:23;;;;;;;9.63;5.50;;;14.20;99.90;;;;;;5035465;28;20074;-65
2021/08/28 06:16:48;;;;;;;10.15;6.03;;;14.20;99.90;;;;;;5029952;28;20034;-65
2021/08/28 06:19:14;;;;;;;7.50;5.45;;;14.20;99.80;;;;;;5034790;28;20056;-64
2021/08/28 06:21:40;;;;;;;6.82;4.45;;;14.20;99.80;;;;;;5026321;28;20530;-65
2021/08/28 06:24:06;;;;;;;7.15;4.32;;;14.20;99.90;;;;;;5029980;28;20025;-64
2021/08/28 06:26:31;;;;;;;7.75;4.50;;;14.30;99.80;;;;;;5029266;28;20411;-65
2021/08/28 06:28:57;;;;;;;7.70;4.70;;;14.30;99.80;;;;;;5022853;28;20124;-65
2021/08/28 06:31:22;;;;;;;6.35;4.07;;;14.30;99.80;;;;;;5031785;28;20060;-65
2021/08/28 06:33:48;;;;;;;6.20;4.20;;;14.40;99.80;;;;;;5031797;28;20025;-65
2021/08/28 06:36:14;;;;;;;9.25;3.90;;;14.50;99.70;;;;;;5033994;28;20252;-65
2021/08/28 06:38:39;;;;;;;5.07;3.60;;;14.60;99.70;;;;;;5030031;28;20018;-65
2021/08/28 06:41:05;;;;;;;7.93;4.50;;;14.50;99.60;;;;;;5027666;28;20098;-64
2021/08/28 06:43:31;;;;;;;5.57;3.83;;;14.60;99.50;;;;;;5035708;28;20032;-65
2021/08/28 06:45:57;;;;;;;7.97;3.97;;;14.60;99.50;;;;;;5040551;28;20161;-65
2021/08/28 06:48:22;;;;;;;9.48;4.32;;;14.70;99.50;;;;;;5039581;28;20116;-65
2021/08/28 06:50:48;;;;;;;10.30;5.50;;;14.60;99.50;;;;;;5031919;28;20032;-65
2021/08/28 06:53:15;;;;;;;10.73;6.15;;;14.60;99.40;;;;;;5036916;28;20040;-64
2021/08/28 06:55:41;;;;;;;12.30;6.60;;;14.60;99.40;;;;;;5052335;28;20037;-65
2021/08/28 06:58:07;;;;;;;14.95;7.95;;;14.60;99.40;;;;;;5035864;28;20036;-65
2021/08/28 07:00:32;;;;;;;15.32;8.00;;;14.60;99.30;;;;;;5032981;28;20035;-65
2021/08/28 07:02:58;;;;;;;17.88;8.60;;;14.60;99.40;;;;;;5035312;28;20036;-65
2021/08/28 07:05:24;;;;;;;15.85;9.82;;;14.80;99.50;;;;;;5024693;28;20511;-65
2021/08/28 07:07:50;;;;;;;17.45;9.95;;;14.80;99.40;;;;;;5025062;28;20121;-67
2021/08/28 07:10:16;;;;;;;15.85;9.30;;;14.90;99.30;;;;;;5029566;28;20045;-67
2021/08/28 07:12:42;;;;;;;12.25;9.35;;;15.00;99.20;;;;;;5033820;28;20021;-67
2021/08/28 07:15:08;;;;;;;13.88;9.57;;;15.10;99.20;;;;;;5029118;28;20035;-67
2021/08/28 07:17:34;;;;;;;13.60;8.90;;;15.20;99.10;;;;;;5031540;28;20104;-66
2021/08/28 07:19:59;;;;;;;13.18;8.90;;;15.30;98.90;;;;;;5032337;28;20451;-67
2021/08/28 07:22:25;;;;;;;18.15;9.27;;;15.40;99.00;;;;;;5034590;28;20606;-67
2021/08/28 07:24:51;;;;;;;13.90;8.40;;;15.30;98.80;;;;;;5031230;28;20106;-67
2021/08/28 07:27:17;;;;;;;16.90;9.77;;;15.30;98.60;;;;;;5033332;28;20137;-67
2021/08/28 07:29:43;;;;;;;14.48;9.38;;;15.40;98.80;;;;;;5032696;28;20029;-67
2021/08/28 07:32:10;;;;;;;13.88;8.98;;;15.40;98.50;;;;;;5023211;28;20075;-67
2021/08/28 07:34:36;;;;;;;19.60;8.98;;;15.40;98.50;;;;;;5029946;28;20033;-68
2021/08/28 07:37:06;;;;;;;15.90;9.38;;;15.40;98.50;;;;;;5035697;28;20037;-67
2021/08/28 07:39:32;;;;;;;15.98;9.48;;;15.50;98.60;;;;;;5028092;28;20055;-67
2021/08/28 07:41:58;;;;;;;14.10;9.65;;;15.60;98.60;;;;;;5028554;28;20029;-67
2021/08/28 07:44:24;;;;;;;12.18;8.77;;;15.70;98.50;;;;;;5039570;28;20032;-67
2021/08/28 07:46:50;;;;;;;14.65;8.35;;;15.70;98.20;;;;;;5038747;28;20120;-67
2021/08/28 07:49:16;;;;;;;12.57;8.43;;;15.70;98.00;;;;;;5032977;28;20464;-67
2021/08/28 07:51:42;;;;;;;10.95;7.38;;;15.80;98.10;;;;;;5037258;28;20036;-67
2021/08/28 07:54:08;;;;;;;14.32;7.60;;;15.70;97.80;;;;;;5035095;28;20033;-67
2021/08/28 07:56:34;;;;;;;11.73;6.50;;;15.90;97.80;;;;;;5029903;28;20077;-67
2021/08/28 07:58:59;;;;;;;11.88;7.00;;;15.80;97.30;;;;;;5035453;28;20503;-67
2021/08/28 08:01:25;;;;;;;9.50;6.90;;;15.70;97.10;;;;;;5031837;28;20116;-67
2021/08/28 08:03:51;;;;;;;12.02;6.63;;;15.70;97.30;;;;;;5033514;28;20031;-67
2021/08/28 08:06:16;;;;;;;12.30;6.82;;;15.70;97.50;;;;;;5031716;28;20060;-67
2021/08/28 08:08:42;;;;;;;10.13;7.00;;;15.60;97.70;;;;;;5027855;28;20352;-67
2021/08/28 08:11:08;;;;;;;10.77;7.10;;;15.50;97.60;;;;;;5030702;28;20029;-67
2021/08/28 08:13:33;;;;;;;14.02;8.00;;;15.50;97.80;;;;;;5033739;28;20327;-67
2021/08/28 08:15:59;;;;;;;10.90;7.40;;;15.60;97.90;;;;;;5029847;28;20101;-67
2021/08/28 08:18:25;;;;;;;11.90;7.22;;;15.70;97.90;;;;;;5029395;28;20018;-67
2021/08/28 08:20:50;;;;;;;11.10;7.03;;;15.80;97.90;;;;;;5025466;28;20083;-67
2021/08/28 08:23:16;;;;;;;11.02;6.50;;;15.80;97.90;;;;;;5016220;28;20037;-67
2021/08/28 08:25:42;;;;;;;11.50;7.13;;;15.70;97.70;;;;;;5026820;28;20129;-66
2021/08/28 08:28:07;;;;;;;10.23;6.82;;;15.70;97.80;;;;;;5037972;28;20077;-67
2021/08/28 08:30:33;;;;;;;14.43;6.40;;;15.80;97.90;;;;;;5032182;28;20029;-67
2021/08/28 08:32:59;;;;;;;9.85;6.30;;;15.70;97.60;;;;;;5030073;28;20112;-66
2021/08/28 08:35:25;;;;;;;13.68;5.97;;;15.70;97.50;;;;;;5034200;28;20032;-67
2021/08/28 08:37:52;;;;;;;10.40;6.13;;;15.80;97.70;;;;;;5043312;28;20140;-67
2021/08/28 08:40:19;;;;;;;9.18;5.57;;;16.00;97.80;;;;;;5032647;28;20121;-67
2021/08/28 08:42:47;;;;;;;9.05;6.00;;;16.20;97.80;;;;;;5033804;28;20449;-67
2021/08/28 08:45:13;;;;;;;10.30;5.00;;;16.40;97.80;;;;;;5027085;28;20021;-67
2021/08/28 08:47:39;;;;;;;9.10;5.55;;;16.50;97.60;;;;;;5027293;28;20612;-67
2021/08/28 08:50:06;;;;;;;8.30;4.57;;;16.70;97.50;;;;;;5032531;28;20060;-67
2021/08/28 08:52:33;;;;;;;7.50;4.70;;;16.60;96.80;;;;;;5034351;28;20158;-68
2021/08/28 08:54:59;;;;;;;7.72;5.00;;;16.70;96.40;;;;;;5025105;28;20180;-67
2021/08/28 08:57:26;;;;;;;11.77;5.00;;;16.70;96.50;;;;;;5035639;28;20033;-67
2021/08/28 08:59:51;;;;;;;7.05;4.55;;;16.50;95.30;;;;;;5025281;28;20107;-67
2021/08/28 09:02:17;;;;;;;8.38;4.47;;;16.50;96.20;;;;;;5031148;28;20185;-67
2021/08/28 09:04:43;;;;;;;7.07;4.70;;;16.50;96.30;;;;;;5022885;28;20508;-68
2021/08/28 09:07:13;;;;;;;6.68;4.20;;;16.40;96.20;;;;;;5028847;28;20156;-67
2021/08/28 09:09:40;;;;;;;6.97;4.05;;;16.30;96.20;;;;;;5036302;28;20143;-68
2021/08/28 09:12:11;;;;;;;9.52;4.63;;;16.20;96.00;;;;;;5038623;28;20033;-67
2021/08/28 09:14:37;;;;;;;8.10;3.70;;;16.30;96.20;;;;;;5039433;28;20119;-67
2021/08/28 09:17:19;;;;;;;8.88;4.55;;;16.30;96.10;;;;;;5027190;28;20113;-68
2021/08/28 09:19:46;;;;;;;6.13;3.83;;;16.50;96.90;;;;;;5031962;28;20038;-68
2021/08/28 09:22:23;;;;;;;6.25;4.03;;;16.50;96.20;;;;;;5033837;28;20100;-67
2021/08/28 09:24:49;;;;;;;5.82;3.60;;;16.50;95.90;;;;;;5029427;28;20629;-68
2021/08/28 09:27:41;;;;;;;5.80;3.30;;;16.50;96.20;;;;;;5039230;28;20387;-68
2021/08/28 09:30:27;;;;;;;5.47;3.28;;;16.50;95.90;;;;;;5025164;28;20672;-68
2021/08/28 09:33:03;;;;;;;5.82;3.63;;;16.60;96.00;;;;;;5029142;28;20029;-68
2021/08/28 09:35:35;;;;;;;6.03;3.60;;;16.60;96.00;;;;;;5023545;28;20658;-67
2021/08/28 09:38:04;;;;;;;7.05;3.50;;;16.90;96.60;;;;;;5028038;28;20048;-67
2021/08/28 09:40:35;;;;;;;4.72;2.75;;;17.10;96.20;;;;;;5025854;28;20109;-67
2021/08/28 09:43:06;;;;;;;5.20;2.83;;;17.10;95.60;;;;;;5034346;28;20114;-68
2021/08/28 09:45:35;;;;;;;4.43;2.58;;;17.40;95.00;;;;;;5030684;28;20032;-65
2021/08/28 09:48:01;;;;;;;3.88;2.35;;;17.50;93.70;;;;;;5034714;28;20416;-66
2021/08/28 09:50:32;;;;;;;4.63;2.60;;;17.50;93.20;;;;;;5031249;28;20392;-66
2021/08/28 09:53:09;;;;;;;4.60;2.38;;;17.50;93.40;;;;;;5028569;28;20024;-66
2021/08/28 09:55:36;;;;;;;4.82;2.53;;;17.30;93.80;;;;;;5035361;28;20028;-66
2021/08/28 09:58:03;;;;;;;4.72;2.30;;;17.30;94.50;;;;;;5040607;28;20029;-66
2021/08/28 10:00:32;;;;;;;3.58;2.30;;;17.30;93.70;;;;;;5027999;28;20693;-66
2021/08/28 10:03:05;;;;;;;4.78;2.25;;;17.40;94.20;;;;;;5029746;28;20076;-67
2021/08/28 10:05:37;;;;;;;4.28;1.98;;;17.50;95.30;;;;;;5031032;28;20036;-66
2021/08/28 10:08:07;;;;;;;4.47;2.03;;;17.40;95.10;;;;;;5041175;28;20486;-66
2021/08/28 10:10:35;;;;;;;3.17;1.85;;;17.10;94.80;;;;;;5036295;28;20468;-66
2021/08/28 10:13:03;;;;;;;4.40;1.88;;;16.90;95.00;;;;;;5034389;28;20036;-66
2021/08/28 10:15:31;;;;;;;4.55;1.50;;;16.80;96.00;;;;;;5030897;28;20021;-66
2021/08/28 10:17:58;;;;;;;3.25;1.70;;;16.80;96.00;;;;;;5040368;28;20033;-67
2021/08/28 10:20:26;;;;;;;3.67;1.77;;;16.60;96.10;;;;;;5024336;28;20040;-66
2021/08/28 10:22:56;;;;;;;2.08;1.30;;;16.70;96.40;;;;;;5034029;28;20059;-67
2021/08/28 10:25:24;;;;;;;2.58;1.50;;;16.60;96.60;;;;;;5026110;28;20109;-67
2021/08/28 10:27:51;;;;;;;2.17;1.50;;;16.60;96.80;;;;;;5027746;28;20021;-66
2021/08/28 10:30:19;;;;;;;2.85;1.48;;;16.80;97.00;;;;;;5023810;28;20025;-66
2021/08/28 10:32:45;;;;;;;2.90;1.60;;;16.80;96.70;;;;;;5029276;28;20021;-66
2021/08/28 10:35:12;;;;;;;2.78;1.45;;;16.80;96.70;;;;;;5035826;28;20429;-67
2021/08/28 10:37:38;;;;;;;4.00;1.90;;;16.80;96.00;;;;;;5030677;28;20112;-66
2021/08/28 10:40:11;;;;;;;1.98;1.40;;;16.80;96.70;;;;;;5024204;28;20516;-73
2021/08/28 10:42:40;;;;;;;2.25;1.63;;;16.90;96.70;;;;;;5032575;28;20029;-66
2021/08/28 10:45:08;;;;;;;3.88;2.08;;;16.90;96.40;;;;;;5023897;28;20036;-67
2021/08/28 10:47:33;;;;;;;2.47;1.60;;;16.90;97.00;;;;;;5034806;28;20048;-67
2021/08/28 10:50:06;;;;;;;3.03;1.75;;;17.00;96.80;;;;;;5030122;28;20021;-67
2021/08/28 10:52:35;;;;;;;3.60;1.65;;;17.10;96.80;;;;;;5034048;28;22693;-67
2021/08/28 10:55:10;;;;;;;3.95;1.45;;;17.20;96.60;;;;;;5017874;28;20104;-67
2021/08/28 10:57:37;;;;;;;2.17;1.40;;;17.60;95.50;;;;;;5028696;28;20132;-67
2021/08/28 11:00:05;;;;;;;1.80;1.23;;;18.20;95.20;;;;;;5029197;28;20026;-67
2021/08/28 11:02:51;;;;;;;2.05;1.10;;;18.30;95.00;;;;;;5034168;28;20033;-67
2021/08/28 11:05:19;;;;;;;1.33;0.75;;;18.10;93.30;;;;;;5027269;28;20109;-67
2021/08/28 11:07:44;;;;;;;1.48;1.05;;;18.00;93.20;;;;;;5029591;28;20088;-67
2021/08/28 11:10:12;;;;;;;2.78;1.20;;;18.00;94.70;;;;;;5028759;28;20388;-66
2021/08/28 11:13:02;;;;;;;1.98;0.90;;;18.00;94.80;;;;;;5023279;28;20305;-67
2021/08/28 11:15:28;;;;;;;1.80;0.98;;;17.90;94.40;;;;;;5023083;28;20091;-67
2021/08/28 11:18:02;;;;;;;1.95;1.10;;;18.10;94.60;;;;;;5026828;28;20109;-67
2021/08/28 11:20:45;;;;;;;1.55;1.05;;;18.20;93.20;;;;;;5023363;28;20439;-67
2021/08/28 11:23:17;;;;;;;3.50;1.30;;;18.50;93.90;;;;;;5034936;28;20025;-66
2021/08/28 11:25:48;;;;;;;1.75;1.10;;;18.50;94.70;;;;;;5026608;28;20085;-67
2021/08/28 11:28:15;;;;;;;1.60;1.10;;;18.30;93.30;;;;;;5026289;28;20468;-66
2021/08/28 11:30:47;;;;;;;2.13;1.40;;;18.10;93.80;;;;;;5035924;28;20017;-67
2021/08/28 11:33:24;;;;;;;2.03;1.33;;;18.10;93.90;;;;;;5032852;28;20094;-67
2021/08/28 11:35:53;;;;;;;2.78;1.52;;;18.00;94.50;;;;;;5033249;28;20021;-69
2021/08/28 11:38:25;;;;;;;2.70;1.70;;;17.90;94.40;;;;;;5041903;28;20028;-69
2021/08/28 11:41:06;;;;;;;3.92;1.83;;;17.70;94.30;;;;;;5033031;28;20044;-69
2021/08/28 11:43:42;;;;;;;1.85;1.50;;;17.70;93.60;;;;;;5041434;28;20048;-69
2021/08/28 11:46:11;;;;;;;5.90;1.75;;;17.70;94.30;;;;;;5032534;28;20025;-68
2021/08/28 11:48:39;;;;;;;2.05;1.60;;;17.60;94.80;;;;;;5036387;28;20404;-67
2021/08/28 11:51:26;;;;;;;3.20;1.60;;;17.60;95.10;;;;;;5030874;28;20029;-66
2021/08/28 11:53:54;;;;;;;3.50;2.08;;;17.70;95.40;;;;;;5031023;28;20053;-65
2021/08/28 11:56:21;;;;;;;2.85;1.70;;;17.80;95.10;;;;;;5032760;28;20032;-65
2021/08/28 11:58:51;;;;;;;2.97;1.85;;;17.80;95.20;;;;;;5027189;28;20632;-66
2021/08/28 12:01:35;;;;;;;2.85;1.80;;;17.60;95.00;;;;;;5028219;28;20095;-64
2021/08/28 12:04:03;;;;;;;43.17;37.35;;;17.60;95.00;;;;;;5037341;28;20447;-67
2021/08/28 12:06:30;;;;;;;165.82;149.73;;;17.60;95.20;;;;;;5036709;28;20044;-65
2021/08/28 12:08:57;;;;;;;11.70;8.95;;;17.70;95.60;;;;;;5037042;28;20086;-66
2021/08/28 12:11:24;;;;;;;5.65;3.13;;;17.70;95.20;;;;;;5040227;28;20059;-68
2021/08/28 12:13:53;;;;;;;4.10;2.42;;;17.90;94.90;;;;;;5028236;28;20587;-70
2021/08/28 12:16:31;;;;;;;4.32;2.05;;;18.00;94.40;;;;;;5030967;28;20124;-68
2021/08/28 12:19:16;;;;;;;2.35;1.60;;;18.20;94.70;;;;;;5034953;28;20066;-68
2021/08/28 12:21:47;;;;;;;4.03;1.48;;;18.00;92.80;;;;;;5040442;28;20035;-69
2021/08/28 12:24:22;;;;;;;1.63;1.27;;;17.90;93.30;;;;;;5036327;28;20037;-69
2021/08/28 12:26:55;;;;;;;3.10;1.10;;;17.70;94.10;;;;;;5035081;28;20084;-69
2021/08/28 12:29:28;;;;;;;3.45;1.30;;;17.50;94.90;;;;;;5036410;28;20029;-69
2021/08/28 12:31:56;;;;;;;3.97;1.30;;;17.20;95.20;;;;;;5032284;28;20028;-68
2021/08/28 12:34:23;;;;;;;3.25;1.60;;;17.00;95.40;;;;;;5037702;28;20223;-69
2021/08/28 12:36:49;;;;;;;2.35;1.30;;;17.00;95.90;;;;;;5030822;28;20444;-70
2021/08/28 12:39:15;;;;;;;2.72;1.48;;;16.90;95.80;;;;;;5029883;28;20083;-69